createdAt,value
2019-01-23T00:02:54.673Z,13.83
2019-01-23T00:08:49.674Z,13.75
2019-01-23T00:14:44.683Z,13.61
2019-01-23T00:20:39.684Z,18.27
2019-01-23T00:26:34.677Z,16.04
2019-01-23T00:32:29.693Z,13.22
2019-01-23T00:38:24.783Z,19.62
2019-01-23T00:44:19.695Z,17.45
2019-01-23T00:50:14.715Z,13.97
2019-01-23T00:56:09.699Z,14.21
2019-01-23T01:02:04.705Z,14.27
2019-01-23T01:07:59.708Z,14.55
2019-01-23T01:13:54.722Z,15.27
2019-01-23T01:19:49.709Z,14.66
2019-01-23T01:25:44.716Z,14.95
2019-01-23T01:31:39.745Z,14.63
2019-01-23T01:37:34.710Z,15.03
2019-01-23T01:43:29.729Z,14.7
2019-01-23T01:49:24.739Z,14.58
2019-01-23T01:55:19.717Z,17.8
2019-01-23T02:01:14.751Z,16.2
2019-01-23T02:07:09.743Z,16.5
2019-01-23T02:13:04.764Z,15.53
2019-01-23T02:18:59.742Z,15.65
2019-01-23T02:24:54.783Z,14.95
2019-01-23T02:30:49.757Z,14.77
2019-01-23T02:36:44.753Z,14.99
2019-01-23T02:42:39.740Z,15.1
2019-01-23T02:48:34.773Z,14.94
2019-01-23T02:54:29.762Z,15.05
2019-01-23T03:00:24.764Z,14.34
2019-01-23T03:06:19.744Z,15.98
2019-01-23T03:12:14.834Z,15.13
2019-01-23T03:18:09.789Z,15.5
2019-01-23T03:24:04.762Z,15.26
2019-01-23T03:29:59.786Z,16.49
2019-01-23T03:35:54.803Z,15.65
2019-01-23T03:41:49.806Z,16.21
2019-01-23T03:47:44.797Z,16.15
2019-01-23T03:53:39.799Z,16.46
2019-01-23T03:59:34.784Z,16.51
2019-01-23T04:05:31.069Z,17.75
2019-01-23T04:11:24.816Z,17.29
2019-01-23T04:17:19.797Z,16.87
2019-01-23T04:23:14.837Z,17.6
2019-01-23T04:29:09.800Z,17.66
2019-01-23T04:35:04.823Z,17.52
2019-01-23T04:40:59.834Z,16.83
2019-01-23T04:46:54.834Z,17.38
2019-01-23T04:52:49.854Z,18.02
2019-01-23T04:58:44.842Z,17.78
2019-01-23T05:04:39.833Z,17.15
2019-01-23T05:10:34.812Z,16.71
2019-01-23T05:16:29.869Z,16.35
2019-01-23T05:22:24.844Z,15.87
2019-01-23T05:28:19.844Z,14.82
2019-01-23T05:34:14.847Z,15.13
2019-01-23T05:40:09.843Z,15.76
2019-01-23T05:46:04.849Z,16.15
2019-01-23T05:51:59.854Z,15.82
2019-01-23T05:57:54.844Z,14.61
2019-01-23T06:03:49.857Z,15.3
2019-01-23T06:09:44.866Z,16.23
2019-01-23T06:15:39.866Z,16.3
2019-01-23T06:21:34.856Z,17.26
2019-01-23T06:27:29.862Z,15.72
2019-01-23T06:33:24.872Z,15.14
2019-01-23T06:39:19.887Z,14.51
2019-01-23T06:45:14.881Z,15.72
2019-01-23T06:51:09.894Z,15.02
2019-01-23T06:57:04.909Z,16
2019-01-23T07:02:59.889Z,17.42
2019-01-23T07:08:54.945Z,18.55
2019-01-23T07:14:49.894Z,18.44
2019-01-23T07:20:44.913Z,17.02
2019-01-23T07:26:39.908Z,18.19
2019-01-23T07:32:34.897Z,17.76
2019-01-23T07:38:29.915Z,18.07
2019-01-23T07:44:24.888Z,18.19
2019-01-23T07:50:19.914Z,23.27
2019-01-23T07:56:14.985Z,19.49
2019-01-23T08:02:09.892Z,19
2019-01-23T08:08:04.951Z,21.04
2019-01-23T08:14:00.038Z,18.71
2019-01-23T08:19:54.908Z,21.01
2019-01-23T08:25:49.937Z,21.58
2019-01-23T08:31:44.951Z,19.9
2019-01-23T08:37:39.933Z,19.6
2019-01-23T08:43:34.959Z,20.07
2019-01-23T08:49:29.951Z,19.83
2019-01-23T08:55:24.926Z,20.49
2019-01-23T09:01:19.936Z,21.12
2019-01-23T09:07:14.966Z,20.96
2019-01-23T09:13:09.963Z,23.4
2019-01-23T09:19:04.940Z,25.17
2019-01-23T09:24:59.965Z,24.82
2019-01-23T09:30:54.971Z,23.42
2019-01-23T09:36:50.008Z,22.77
2019-01-23T09:42:44.989Z,24.2
2019-01-23T09:48:39.965Z,25.13
2019-01-23T09:54:34.969Z,22.61
2019-01-23T10:00:31.680Z,22.54
2019-01-23T10:06:25.028Z,23.1
2019-01-23T10:12:19.987Z,24.3
2019-01-23T10:18:15.008Z,23.92
2019-01-23T10:24:09.995Z,23.92
2019-01-23T10:30:04.990Z,22.35
2019-01-23T10:36:00.012Z,23.79
2019-01-23T10:41:55.016Z,22.94
2019-01-23T10:47:55.878Z,22.85
2019-01-23T10:53:45.007Z,22.85
2019-01-23T10:59:39.990Z,22.33
2019-01-23T11:05:35.017Z,23.42
2019-01-23T11:11:30.055Z,22.64
2019-01-23T11:17:25.046Z,26.6
2019-01-23T11:23:20.006Z,20.34
2019-01-23T11:29:14.999Z,23.55
2019-01-23T11:35:10.033Z,22.27
2019-01-23T11:41:05.085Z,21.44
2019-01-23T11:47:00.018Z,21.35
2019-01-23T11:52:55.081Z,21.02
2019-01-23T11:58:50.053Z,17.92
2019-01-23T12:04:45.033Z,20.25
2019-01-23T12:10:40.055Z,20.77
2019-01-23T12:16:35.042Z,23.42
2019-01-23T12:22:30.043Z,20.5
2019-01-23T12:28:25.086Z,17.46
2019-01-23T12:34:20.112Z,18.15
2019-01-23T12:40:15.104Z,21.5
2019-01-23T12:46:10.043Z,19.65
2019-01-23T12:52:05.065Z,6.85
2019-01-23T12:58:00.056Z,19.94
2019-01-23T13:03:55.084Z,19.29
2019-01-23T13:09:50.059Z,19.71
2019-01-23T13:15:45.080Z,19.55
2019-01-23T13:21:40.095Z,19.17
2019-01-23T13:27:35.098Z,20.48
2019-01-23T13:33:30.114Z,20.1
2019-01-23T13:39:25.084Z,21.27
2019-01-23T13:45:20.130Z,18.52
2019-01-23T13:51:15.086Z,18.47
2019-01-23T13:57:10.111Z,17.15
2019-01-23T14:03:05.080Z,10.52
2019-01-23T14:09:00.155Z,9.9
2019-01-23T14:14:55.105Z,18.33
2019-01-23T14:20:50.088Z,19.79
2019-01-23T14:26:45.145Z,20.86
2019-01-23T14:32:40.132Z,22.42
2019-01-23T14:38:36.083Z,21.31
2019-01-23T14:44:30.165Z,19.63
2019-01-23T14:50:25.203Z,19.06
2019-01-23T14:56:20.157Z,20.12
2019-01-23T15:02:15.121Z,17.44
2019-01-23T15:08:10.168Z,17.85
2019-01-23T15:14:05.150Z,17.28
2019-01-23T15:20:00.218Z,17.18
2019-01-23T15:25:55.167Z,17.23
2019-01-23T15:31:50.156Z,20.94
2019-01-23T15:37:45.126Z,19.43
2019-01-23T15:43:40.150Z,14.77
2019-01-23T15:49:35.170Z,8.75
2019-01-23T15:55:30.144Z,4.59
2019-01-23T16:01:25.229Z,7.31
2019-01-23T16:07:20.349Z,4.18
2019-01-23T16:13:15.174Z,3.72
2019-01-23T16:19:10.199Z,4.68
2019-01-23T16:25:05.190Z,3.08
2019-01-23T16:31:00.168Z,2.56
2019-01-23T16:36:55.168Z,3.47
2019-01-23T16:42:50.184Z,4.16
2019-01-23T16:48:45.223Z,4.05
2019-01-23T16:54:40.190Z,4.85
2019-01-23T17:00:35.245Z,5.7
2019-01-23T17:06:30.231Z,11.63
2019-01-23T17:12:25.202Z,7.46
2019-01-23T17:18:20.195Z,4.37
2019-01-23T17:24:15.244Z,7.94
2019-01-23T17:30:10.205Z,5.73
2019-01-23T17:36:05.261Z,5.78
2019-01-23T17:42:00.201Z,6.83
2019-01-23T17:47:55.204Z,8.41
2019-01-23T17:53:50.208Z,5.76
2019-01-23T17:59:45.212Z,10.11
2019-01-23T18:05:40.222Z,10.6
2019-01-23T18:11:35.241Z,6.94
2019-01-23T18:17:30.219Z,6.39
2019-01-23T18:23:25.231Z,6.87
2019-01-23T18:29:20.232Z,4.52
2019-01-23T18:35:15.229Z,5.4
2019-01-23T18:41:10.355Z,9.66
2019-01-23T18:47:05.241Z,4.77
2019-01-23T18:53:00.261Z,5.2
2019-01-23T18:58:55.290Z,9.26
2019-01-23T19:04:50.241Z,11.21
2019-01-23T19:10:45.303Z,4.91
2019-01-23T19:16:40.273Z,5.4
2019-01-23T19:22:35.245Z,3.76
2019-01-23T19:28:30.327Z,4.18
2019-01-23T19:34:25.310Z,5.7
2019-01-23T19:40:20.262Z,3.37
2019-01-23T19:46:15.278Z,2.39
2019-01-23T19:52:10.264Z,3.88
2019-01-23T19:58:05.286Z,12.16
2019-01-23T20:04:00.283Z,9.72
2019-01-23T20:09:55.299Z,4.85
2019-01-23T20:15:50.303Z,6.99
2019-01-23T20:21:45.286Z,6.91
2019-01-23T20:27:40.292Z,3.67
2019-01-23T20:33:35.332Z,2.18
2019-01-23T20:39:30.287Z,3.99
2019-01-23T20:45:25.358Z,1.91
2019-01-23T20:51:20.334Z,3.85
2019-01-23T20:57:15.304Z,1.44
2019-01-23T21:03:10.304Z,22.43
2019-01-23T21:09:05.319Z,5.7
2019-01-23T21:15:00.319Z,6.22
2019-01-23T21:20:55.325Z,1.62
2019-01-23T21:26:50.321Z,3.67
2019-01-23T21:32:45.313Z,4.92
2019-01-23T21:38:40.348Z,4.79
2019-01-23T21:44:35.342Z,2.53
2019-01-23T21:50:30.363Z,2
2019-01-23T21:56:25.334Z,1.46
2019-01-23T22:02:20.381Z,0.92
2019-01-23T22:08:15.326Z,4.47
2019-01-23T22:14:10.338Z,2.31
2019-01-23T22:20:05.370Z,2.44
2019-01-23T22:26:00.357Z,2.2
2019-01-23T22:31:55.357Z,1.86
2019-01-23T22:37:50.366Z,3.8
2019-01-23T22:43:45.358Z,1.6
2019-01-23T22:49:40.356Z,3.14
2019-01-23T22:55:35.421Z,3.05
2019-01-23T23:01:30.369Z,0.44
2019-01-23T23:07:25.394Z,2.75
2019-01-23T23:13:20.382Z,3.11
2019-01-23T23:19:15.395Z,1.73
2019-01-23T23:25:10.455Z,1.01
2019-01-23T23:31:05.448Z,0.77
2019-01-23T23:37:00.377Z,0.73
2019-01-23T23:42:55.379Z,1.1
2019-01-23T23:48:50.447Z,1
2019-01-23T23:54:45.392Z,0.93
